Decoded Metar for ROIG (ISHIGAKI in JAPAN) (IATA:ISG) | Meteo·Mobile Aviation Weather
aviador You're here:

ROIG Decoded Metar

ISHIGAKI in JAPAN
Report Time2019-01-18 11:00:00
UTC Time2019-01-18 11:15:28
Flight Rules vfr VFR
Wind070° at 14 kt
W.Decomp.*RWY 04: 11.6 kt HW 7.8 kt RCW
W.Rank070° ranks 7
Current wind is above 070° avg. (10.6)
Visibility9999 m
Phenomena:N/A
Clouds:Few 035 Hf
Broken 045 Hf
Expected CloudBase > 2,800 ft AGL from Temp-Dew spread
Ceiling4,500 ft
Temp18°C (ISA +3)
Dew Point11°C (64% RH)
AAT13.3°C
QNH1022 hPa
Density Alt256 ft
Elevation23 ft
Report Wrong Elevation
Raw Report
ROIG 181100Z 07014KT 9999 FEW035 BKN045 18/11 Q1022=

Extra information for ROIG:More info

Metar Taf Metar & Taf Last 4 Metars F.Rules Stats Wind Profile Meteogram Temp Stats Airport Information Weather charts Add Link Nearby VenuesMetar ALERT Operation Metar Decoded Social comments